sensor_id;sensor_type;location;lat;lon;timestamp;pressure;altitude;pressure_sealevel;temperature;humidity
78144;BME280;67394;52.522;13.622;2023-05-20T00:02:18;102032.31;;;9.56;78.34
78144;BME280;67394;52.522;13.622;2023-05-20T00:04:45;102040.78;;;9.53;78.76
78144;BME280;67394;52.522;13.622;2023-05-20T00:07:12;102038.84;;;9.45;78.96
78144;BME280;67394;52.522;13.622;2023-05-20T00:09:40;102037.09;;;9.42;79.05
78144;BME280;67394;52.522;13.622;2023-05-20T00:12:07;102040.41;;;9.38;78.88
78144;BME280;67394;52.522;13.622;2023-05-20T00:14:33;102038.63;;;9.36;78.79
78144;BME280;67394;52.522;13.622;2023-05-20T00:17:00;102031.69;;;9.32;79.70
78144;BME280;67394;52.522;13.622;2023-05-20T00:19:26;102033.25;;;9.27;79.91
78144;BME280;67394;52.522;13.622;2023-05-20T00:21:53;102038.31;;;9.25;79.76
78144;BME280;67394;52.522;13.622;2023-05-20T00:24:20;102028.91;;;9.24;80.36
78144;BME280;67394;52.522;13.622;2023-05-20T00:26:47;102031.38;;;9.20;79.90
78144;BME280;67394;52.522;13.622;2023-05-20T00:29:13;102032.16;;;9.17;79.92
78144;BME280;67394;52.522;13.622;2023-05-20T00:31:41;102034.53;;;9.11;80.70
78144;BME280;67394;52.522;13.622;2023-05-20T00:34:08;102032.91;;;9.14;80.56
78144;BME280;67394;52.522;13.622;2023-05-20T00:36:36;102035.44;;;9.13;80.61
78144;BME280;67394;52.522;13.622;2023-05-20T00:39:02;102032.81;;;9.11;80.50
78144;BME280;67394;52.522;13.622;2023-05-20T00:41:31;102034.44;;;9.08;80.69
78144;BME280;67394;52.522;13.622;2023-05-20T00:43:57;102038.69;;;9.07;81.46
78144;BME280;67394;52.522;13.622;2023-05-20T00:46:25;102036.88;;;9.03;80.95
78144;BME280;67394;52.522;13.622;2023-05-20T00:48:53;102036.56;;;8.93;82.14
78144;BME280;67394;52.522;13.622;2023-05-20T00:51:20;102036.44;;;8.88;81.60
78144;BME280;67394;52.522;13.622;2023-05-20T00:53:47;102038.03;;;8.85;82.67
78144;BME280;67394;52.522;13.622;2023-05-20T00:56:15;102037.31;;;8.89;82.61
78144;BME280;67394;52.522;13.622;2023-05-20T00:58:41;102030.50;;;8.89;83.04
78144;BME280;67394;52.522;13.622;2023-05-20T01:01:08;102041.31;;;8.80;83.33
78144;BME280;67394;52.522;13.622;2023-05-20T01:03:35;102032.72;;;8.77;83.06
78144;BME280;67394;52.522;13.622;2023-05-20T01:06:02;102026.78;;;8.78;82.97
78144;BME280;67394;52.522;13.622;2023-05-20T01:08:29;102030.06;;;8.74;83.34
78144;BME280;67394;52.522;13.622;2023-05-20T01:11:07;102027.50;;;8.74;83.53
78144;BME280;67394;52.522;13.622;2023-05-20T01:13:54;102020.53;;;8.68;83.68
78144;BME280;67394;52.522;13.622;2023-05-20T01:16:23;102025.75;;;8.73;83.86
78144;BME280;67394;52.522;13.622;2023-05-20T01:18:55;102022.06;;;8.63;84.30
78144;BME280;67394;52.522;13.622;2023-05-20T01:21:23;102021.91;;;8.57;84.79
78144;BME280;67394;52.522;13.622;2023-05-20T01:23:53;102012.50;;;8.56;84.97
78144;BME280;67394;52.522;13.622;2023-05-20T01:26:20;102011.63;;;8.56;84.71
78144;BME280;67394;52.522;13.622;2023-05-20T01:28:47;102010.78;;;8.55;84.62
78144;BME280;67394;52.522;13.622;2023-05-20T01:31:19;102012.44;;;8.55;84.49
78144;BME280;67394;52.522;13.622;2023-05-20T01:33:51;102006.38;;;8.51;84.65
78144;BME280;67394;52.522;13.622;2023-05-20T01:36:20;102009.84;;;8.53;84.76
78144;BME280;67394;52.522;13.622;2023-05-20T01:38:48;102012.25;;;8.49;85.18
78144;BME280;67394;52.522;13.622;2023-05-20T01:41:16;102012.25;;;8.49;85.05
78144;BME280;67394;52.522;13.622;2023-05-20T01:43:43;102011.38;;;8.47;84.69
78144;BME280;67394;52.522;13.622;2023-05-20T01:46:10;102013.00;;;8.44;85.31
78144;BME280;67394;52.522;13.622;2023-05-20T01:48:37;102013.81;;;8.43;85.22
78144;BME280;67394;52.522;13.622;2023-05-20T01:51:04;102006.88;;;8.39;85.48
78144;BME280;67394;52.522;13.622;2023-05-20T01:53:33;102007.69;;;8.38;86.02
78144;BME280;67394;52.522;13.622;2023-05-20T01:56:00;102005.09;;;8.37;86.06
78144;BME280;67394;52.522;13.622;2023-05-20T01:58:26;102007.69;;;8.38;85.97
78144;BME280;67394;52.522;13.622;2023-05-20T02:00:53;102000.81;;;8.36;85.57
78144;BME280;67394;52.522;13.622;2023-05-20T02:03:23;102008.50;;;8.37;85.90
78144;BME280;67394;52.522;13.622;2023-05-20T02:05:50;102006.06;;;8.40;85.45
78144;BME280;67394;52.522;13.622;2023-05-20T02:08:17;102001.81;;;8.41;85.72
78144;BME280;67394;52.522;13.622;2023-05-20T02:10:46;102000.28;;;8.46;85.62
78144;BME280;67394;52.522;13.622;2023-05-20T02:13:13;101994.19;;;8.42;85.61
78144;BME280;67394;52.522;13.622;2023-05-20T02:15:40;101997.63;;;8.43;85.76
78144;BME280;67394;52.522;13.622;2023-05-20T02:18:07;101995.13;;;8.44;86.20
78144;BME280;67394;52.522;13.622;2023-05-20T02:20:35;102002.00;;;8.47;85.77
78144;BME280;67394;52.522;13.622;2023-05-20T02:23:01;101996.97;;;8.50;85.79
78144;BME280;67394;52.522;13.622;2023-05-20T02:25:28;102001.38;;;8.54;85.77
78144;BME280;67394;52.522;13.622;2023-05-20T02:27:55;101993.78;;;8.57;86.01
78144;BME280;67394;52.522;13.622;2023-05-20T02:30:22;101996.47;;;8.62;85.81
78144;BME280;67394;52.522;13.622;2023-05-20T02:32:49;101985.38;;;8.61;85.71
78144;BME280;67394;52.522;13.622;2023-05-20T02:35:15;101985.47;;;8.64;85.54
78144;BME280;67394;52.522;13.622;2023-05-20T02:37:42;101988.13;;;8.67;85.65
78144;BME280;67394;52.522;13.622;2023-05-20T02:40:09;101977.91;;;8.69;85.67
78144;BME280;67394;52.522;13.622;2023-05-20T02:42:35;101990.03;;;8.74;86.17
78144;BME280;67394;52.522;13.622;2023-05-20T02:45:02;101987.56;;;8.77;85.77
78144;BME280;67394;52.522;13.622;2023-05-20T02:47:29;101989.22;;;8.75;85.58
78144;BME280;67394;52.522;13.622;2023-05-20T02:49:56;101995.31;;;8.80;85.46
78144;BME280;67394;52.522;13.622;2023-05-20T02:52:22;101998.81;;;8.84;85.48
78144;BME280;67394;52.522;13.622;2023-05-20T02:54:49;102006.53;;;8.86;85.53
78144;BME280;67394;52.522;13.622;2023-05-20T02:57:16;101998.16;;;8.90;84.95
78144;BME280;67394;52.522;13.622;2023-05-20T02:59:43;101999.84;;;8.89;85.09
78144;BME280;67394;52.522;13.622;2023-05-20T03:02:10;101999.94;;;8.94;84.83
78144;BME280;67394;52.522;13.622;2023-05-20T03:04:37;101996.56;;;8.95;85.34
78144;BME280;67394;52.522;13.622;2023-05-20T03:07:06;102003.41;;;8.96;85.48
78144;BME280;67394;52.522;13.622;2023-05-20T03:09:33;102004.38;;;9.01;85.57
78144;BME280;67394;52.522;13.622;2023-05-20T03:12:00;101999.28;;;9.01;85.55
78144;BME280;67394;52.522;13.622;2023-05-20T03:14:26;102007.03;;;9.04;84.69
78144;BME280;67394;52.522;13.622;2023-05-20T03:16:53;102008.00;;;9.07;85.17
78144;BME280;67394;52.522;13.622;2023-05-20T03:19:20;102013.22;;;9.10;85.05
78144;BME280;67394;52.522;13.622;2023-05-20T03:21:47;102014.16;;;9.14;84.66
78144;BME280;67394;52.522;13.622;2023-05-20T03:24:14;102019.34;;;9.17;85.13
78144;BME280;67394;52.522;13.622;2023-05-20T03:26:40;102015.88;;;9.15;85.28
78144;BME280;67394;52.522;13.622;2023-05-20T03:29:08;102016.03;;;9.20;84.67
78144;BME280;67394;52.522;13.622;2023-05-20T03:31:35;102014.31;;;9.20;85.09
78144;BME280;67394;52.522;13.622;2023-05-20T03:34:02;102003.34;;;9.24;84.25
78144;BME280;67394;52.522;13.622;2023-05-20T03:36:28;102007.47;;;9.19;84.42
78144;BME280;67394;52.522;13.622;2023-05-20T03:38:55;102010.22;;;9.27;84.15
78144;BME280;67394;52.522;13.622;2023-05-20T03:41:24;102012.66;;;9.22;85.14
78144;BME280;67394;52.522;13.622;2023-05-20T03:43:51;102010.94;;;9.21;85.38
78144;BME280;67394;52.522;13.622;2023-05-20T03:46:18;102022.94;;;9.24;85.34
78144;BME280;67394;52.522;13.622;2023-05-20T03:48:44;102014.38;;;9.23;85.14
78144;BME280;67394;52.522;13.622;2023-05-20T03:51:13;102021.34;;;9.27;85.86
78144;BME280;67394;52.522;13.622;2023-05-20T03:53:40;102014.47;;;9.26;84.67
78144;BME280;67394;52.522;13.622;2023-05-20T03:56:07;102015.47;;;9.31;84.82
78144;BME280;67394;52.522;13.622;2023-05-20T03:58:33;102019.78;;;9.32;85.47
78144;BME280;67394;52.522;13.622;2023-05-20T04:01:00;102028.34;;;9.34;85.76
78144;BME280;67394;52.522;13.622;2023-05-20T04:03:27;102025.78;;;9.34;85.61
78144;BME280;67394;52.522;13.622;2023-05-20T04:05:53;102033.53;;;9.37;85.55
78144;BME280;67394;52.522;13.622;2023-05-20T04:08:20;102025.97;;;9.40;85.82
78144;BME280;67394;52.522;13.622;2023-05-20T04:10:47;102014.91;;;9.43;86.12
78144;BME280;67394;52.522;13.622;2023-05-20T04:13:13;102017.56;;;9.46;85.84
78144;BME280;67394;52.522;13.622;2023-05-20T04:15:40;102017.66;;;9.49;85.13
78144;BME280;67394;52.522;13.622;2023-05-20T04:18:07;102013.44;;;9.51;85.62
78144;BME280;67394;52.522;13.622;2023-05-20T04:20:34;102002.59;;;9.61;85.82
78144;BME280;67394;52.522;13.622;2023-05-20T04:23:01;102010.16;;;9.57;85.98
78144;BME280;67394;52.522;13.622;2023-05-20T04:25:28;102002.47;;;9.57;85.83
78144;BME280;67394;52.522;13.622;2023-05-20T04:27:55;102008.56;;;9.60;85.98
78144;BME280;67394;52.522;13.622;2023-05-20T04:30:22;102008.75;;;9.68;85.53
78144;BME280;67394;52.522;13.622;2023-05-20T04:32:50;102014.03;;;9.74;85.06
78144;BME280;67394;52.522;13.622;2023-05-20T04:35:17;102014.09;;;9.77;85.52
78144;BME280;67394;52.522;13.622;2023-05-20T04:37:44;102016.84;;;9.84;85.24
78144;BME280;67394;52.522;13.622;2023-05-20T04:40:11;102018.69;;;9.90;85.49
78144;BME280;67394;52.522;13.622;2023-05-20T04:42:38;102011.88;;;9.90;85.25
78144;BME280;67394;52.522;13.622;2023-05-20T04:45:05;102012.88;;;9.97;85.72
78144;BME280;67394;52.522;13.622;2023-05-20T04:47:33;102013.03;;;10.03;84.46
78144;BME280;67394;52.522;13.622;2023-05-20T04:50:02;102018.31;;;10.11;85.39
78144;BME280;67394;52.522;13.622;2023-05-20T04:52:29;102026.97;;;10.14;85.68
78144;BME280;67394;52.522;13.622;2023-05-20T04:54:57;102020.19;;;10.16;84.98
78144;BME280;67394;52.522;13.622;2023-05-20T04:57:24;102018.59;;;10.21;84.80
78144;BME280;67394;52.522;13.622;2023-05-20T04:59:51;102015.34;;;10.27;84.83
78144;BME280;67394;52.522;13.622;2023-05-20T05:02:18;102018.75;;;10.27;84.51
78144;BME280;67394;52.522;13.622;2023-05-20T05:04:45;102010.22;;;10.28;84.33
78144;BME280;67394;52.522;13.622;2023-05-20T05:07:12;102009.44;;;10.31;84.47
78144;BME280;67394;52.522;13.622;2023-05-20T05:09:39;102012.06;;;10.34;84.02
78144;BME280;67394;52.522;13.622;2023-05-20T05:12:05;102006.19;;;10.38;84.51
78144;BME280;67394;52.522;13.622;2023-05-20T05:14:32;102007.25;;;10.49;84.75
78144;BME280;67394;52.522;13.622;2023-05-20T05:16:59;102015.78;;;10.47;84.07
78144;BME280;67394;52.522;13.622;2023-05-20T05:19:26;102008.91;;;10.46;84.39
78144;BME280;67394;52.522;13.622;2023-05-20T05:21:53;102014.94;;;10.48;83.89
78144;BME280;67394;52.522;13.622;2023-05-20T05:24:20;102009.81;;;10.49;84.55
78144;BME280;67394;52.522;13.622;2023-05-20T05:26:47;102014.25;;;10.55;84.38
78144;BME280;67394;52.522;13.622;2023-05-20T05:29:13;102010.97;;;10.62;84.41
78144;BME280;67394;52.522;13.622;2023-05-20T05:31:40;102011.00;;;10.63;84.20
78144;BME280;67394;52.522;13.622;2023-05-20T05:34:06;102013.72;;;10.71;83.57
78144;BME280;67394;52.522;13.622;2023-05-20T05:36:33;102010.28;;;10.69;83.14
78144;BME280;67394;52.522;13.622;2023-05-20T05:39:00;102006.09;;;10.74;83.71
78144;BME280;67394;52.522;13.622;2023-05-20T05:41:27;102009.66;;;10.82;83.02
78144;BME280;67394;52.522;13.622;2023-05-20T05:43:53;102006.34;;;10.86;82.88
78144;BME280;67394;52.522;13.622;2023-05-20T05:46:20;102011.56;;;10.89;83.12
78144;BME280;67394;52.522;13.622;2023-05-20T05:48:50;102016.78;;;10.95;83.08
78144;BME280;67394;52.522;13.622;2023-05-20T05:51:16;102006.59;;;10.98;82.45
78144;BME280;67394;52.522;13.622;2023-05-20T05:53:43;102009.31;;;11.06;82.57
78144;BME280;67394;52.522;13.622;2023-05-20T05:56:10;101999.00;;;11.05;82.04
78144;BME280;67394;52.522;13.622;2023-05-20T05:58:37;101991.38;;;11.08;82.99
78144;BME280;67394;52.522;13.622;2023-05-20T06:01:03;101993.19;;;11.12;82.32
78144;BME280;67394;52.522;13.622;2023-05-20T06:03:30;101987.25;;;11.16;82.48
78144;BME280;67394;52.522;13.622;2023-05-20T06:05:57;101993.50;;;11.30;82.58
78144;BME280;67394;52.522;13.622;2023-05-20T06:08:23;101986.56;;;11.26;81.98
78144;BME280;67394;52.522;13.622;2023-05-20T06:10:53;101985.78;;;11.28;81.56
78144;BME280;67394;52.522;13.622;2023-05-20T06:13:19;101985.88;;;11.33;82.16
78144;BME280;67394;52.522;13.622;2023-05-20T06:15:48;101983.41;;;11.39;82.01
78144;BME280;67394;52.522;13.622;2023-05-20T06:18:15;101985.88;;;11.34;81.19
78144;BME280;67394;52.522;13.622;2023-05-20T06:20:42;101984.19;;;11.36;81.69
78144;BME280;67394;52.522;13.622;2023-05-20T06:23:08;101979.13;;;11.40;81.44
78144;BME280;67394;52.522;13.622;2023-05-20T06:25:35;101982.72;;;11.49;81.54
78144;BME280;67394;52.522;13.622;2023-05-20T06:28:02;101991.31;;;11.51;81.95
78144;BME280;67394;52.522;13.622;2023-05-20T06:30:29;101988.84;;;11.57;80.97
78144;BME280;67394;52.522;13.622;2023-05-20T06:32:56;101990.50;;;11.55;81.01
78144;BME280;67394;52.522;13.622;2023-05-20T06:35:23;101982.88;;;11.58;81.02
78144;BME280;67394;52.522;13.622;2023-05-20T06:37:49;101989.75;;;11.59;80.94
78144;BME280;67394;52.522;13.622;2023-05-20T06:40:16;101982.13;;;11.65;81.06
78144;BME280;67394;52.522;13.622;2023-05-20T06:42:42;101983.84;;;11.66;80.50
78144;BME280;67394;52.522;13.622;2023-05-20T06:45:09;101987.25;;;11.65;80.07
78144;BME280;67394;52.522;13.622;2023-05-20T06:47:38;101981.31;;;11.68;80.55
78144;BME280;67394;52.522;13.622;2023-05-20T06:50:05;101979.75;;;11.76;80.30
78144;BME280;67394;52.522;13.622;2023-05-20T06:52:32;101982.50;;;11.87;80.11
78144;BME280;67394;52.522;13.622;2023-05-20T06:54:59;101983.53;;;11.98;79.79
78144;BME280;67394;52.522;13.622;2023-05-20T06:57:27;101984.47;;;12.03;79.89
78144;BME280;67394;52.522;13.622;2023-05-20T06:59:53;101982.00;;;12.09;79.23
78144;BME280;67394;52.522;13.622;2023-05-20T07:02:21;101981.22;;;12.15;79.12
78144;BME280;67394;52.522;13.622;2023-05-20T07:04:48;101982.22;;;12.24;78.96
78144;BME280;67394;52.522;13.622;2023-05-20T07:07:14;101983.84;;;12.19;78.68
78144;BME280;67394;52.522;13.622;2023-05-20T07:09:42;101981.34;;;12.22;78.30
78144;BME280;67394;52.522;13.622;2023-05-20T07:12:11;101982.28;;;12.30;77.91
78144;BME280;67394;52.522;13.622;2023-05-20T07:14:39;101983.28;;;12.38;77.54
78144;BME280;67394;52.522;13.622;2023-05-20T07:17:06;101976.50;;;12.43;77.53
78144;BME280;67394;52.522;13.622;2023-05-20T07:19:35;101984.28;;;12.48;76.93
78144;BME280;67394;52.522;13.622;2023-05-20T07:22:01;101978.34;;;12.54;76.75
78144;BME280;67394;52.522;13.622;2023-05-20T07:24:28;101979.47;;;12.75;77.56
78144;BME280;67394;52.522;13.622;2023-05-20T07:26:55;101981.91;;;12.65;76.96
78144;BME280;67394;52.522;13.622;2023-05-20T07:29:22;101987.22;;;12.78;77.37
78144;BME280;67394;52.522;13.622;2023-05-20T07:31:49;101971.81;;;12.83;75.67
78144;BME280;67394;52.522;13.622;2023-05-20T07:34:17;101978.69;;;12.81;75.95
78144;BME280;67394;52.522;13.622;2023-05-20T07:36:44;101970.97;;;12.82;76.05
78144;BME280;67394;52.522;13.622;2023-05-20T07:39:10;101967.63;;;12.90;76.63
78144;BME280;67394;52.522;13.622;2023-05-20T07:41:40;101968.56;;;12.98;75.57
78144;BME280;67394;52.522;13.622;2023-05-20T07:44:07;101973.75;;;12.99;75.13
78144;BME280;67394;52.522;13.622;2023-05-20T07:46:34;101969.50;;;13.06;74.92
78144;BME280;67394;52.522;13.622;2023-05-20T07:49:00;101970.56;;;13.20;75.53
78144;BME280;67394;52.522;13.622;2023-05-20T07:51:29;101974.13;;;13.33;75.35
78144;BME280;67394;52.522;13.622;2023-05-20T07:53:56;101969.94;;;13.44;75.64
78144;BME280;67394;52.522;13.622;2023-05-20T07:56:22;101967.41;;;13.51;74.78
78144;BME280;67394;52.522;13.622;2023-05-20T07:58:54;101969.16;;;13.52;73.58
78144;BME280;67394;52.522;13.622;2023-05-20T08:01:21;101955.47;;;13.60;74.11
78144;BME280;67394;52.522;13.622;2023-05-20T08:03:48;101960.75;;;13.79;74.02
78144;BME280;67394;52.522;13.622;2023-05-20T08:06:15;101952.28;;;13.92;73.67
78144;BME280;67394;52.522;13.622;2023-05-20T08:08:42;101947.19;;;14.05;73.28
78144;BME280;67394;52.522;13.622;2023-05-20T08:11:08;101940.34;;;14.10;73.00
78144;BME280;67394;52.522;13.622;2023-05-20T08:13:35;101937.91;;;14.36;72.97
78144;BME280;67394;52.522;13.622;2023-05-20T08:16:02;101939.75;;;14.55;71.73
78144;BME280;67394;52.522;13.622;2023-05-20T08:18:29;101937.97;;;14.40;70.49
78144;BME280;67394;52.522;13.622;2023-05-20T08:20:56;101933.72;;;14.50;70.26
78144;BME280;67394;52.522;13.622;2023-05-20T08:23:22;101929.44;;;14.59;70.82
78144;BME280;67394;52.522;13.622;2023-05-20T08:25:49;101936.34;;;14.73;70.80
78144;BME280;67394;52.522;13.622;2023-05-20T08:28:16;101937.22;;;14.69;70.34
78144;BME280;67394;52.522;13.622;2023-05-20T08:30:43;101945.81;;;14.74;70.23
78144;BME280;67394;52.522;13.622;2023-05-20T08:33:10;101939.78;;;14.67;69.50
78144;BME280;67394;52.522;13.622;2023-05-20T08:35:37;101935.50;;;14.74;69.70
78144;BME280;67394;52.522;13.622;2023-05-20T08:38:04;101932.09;;;14.72;69.57
78144;BME280;67394;52.522;13.622;2023-05-20T08:40:33;101931.13;;;14.53;70.03
78144;BME280;67394;52.522;13.622;2023-05-20T08:43:00;101918.25;;;14.62;70.36
78144;BME280;67394;52.522;13.622;2023-05-20T08:45:32;101920.84;;;14.59;69.96
78144;BME280;67394;52.522;13.622;2023-05-20T08:48:00;101916.56;;;14.65;70.26
78144;BME280;67394;52.522;13.622;2023-05-20T08:50:27;101922.56;;;14.58;70.16
78144;BME280;67394;52.522;13.622;2023-05-20T08:52:54;101917.41;;;14.61;69.76
78144;BME280;67394;52.522;13.622;2023-05-20T08:55:25;101916.59;;;14.78;69.44
78144;BME280;67394;52.522;13.622;2023-05-20T08:57:54;101927.84;;;15.02;69.60
78144;BME280;67394;52.522;13.622;2023-05-20T09:00:22;101922.72;;;15.25;68.88
78144;BME280;67394;52.522;13.622;2023-05-20T09:02:49;101917.56;;;15.34;68.21
78144;BME280;67394;52.522;13.622;2023-05-20T09:05:15;101917.56;;;15.34;67.16
78144;BME280;67394;52.522;13.622;2023-05-20T09:07:43;101914.13;;;15.35;67.17
78144;BME280;67394;52.522;13.622;2023-05-20T09:10:09;101924.41;;;15.28;68.10
78144;BME280;67394;52.522;13.622;2023-05-20T09:12:36;101908.06;;;15.46;66.91
78144;BME280;67394;52.522;13.622;2023-05-20T09:15:04;101916.69;;;15.38;67.53
78144;BME280;67394;52.522;13.622;2023-05-20T09:17:34;101917.53;;;15.50;68.37
78144;BME280;67394;52.522;13.622;2023-05-20T09:20:00;101922.69;;;15.50;66.42
78144;BME280;67394;52.522;13.622;2023-05-20T09:22:27;101920.97;;;15.36;66.37
78144;BME280;67394;52.522;13.622;2023-05-20T09:24:54;101913.22;;;15.30;67.40
78144;BME280;67394;52.522;13.622;2023-05-20T09:27:21;101920.13;;;15.28;66.70
78144;BME280;67394;52.522;13.622;2023-05-20T09:29:50;101918.41;;;15.44;66.93
78144;BME280;67394;52.522;13.622;2023-05-20T09:32:19;101912.38;;;15.39;67.56
78144;BME280;67394;52.522;13.622;2023-05-20T09:34:46;101912.38;;;15.44;67.49
78144;BME280;67394;52.522;13.622;2023-05-20T09:37:13;101907.19;;;15.39;67.42
78144;BME280;67394;52.522;13.622;2023-05-20T09:39:56;101913.22;;;15.36;67.66
78144;BME280;67394;52.522;13.622;2023-05-20T09:42:49;101907.22;;;15.24;66.87
78144;BME280;67394;52.522;13.622;2023-05-20T09:45:19;101915.78;;;15.08;68.51
78144;BME280;67394;52.522;13.622;2023-05-20T09:47:47;101907.16;;;15.06;68.77
78144;BME280;67394;52.522;13.622;2023-05-20T09:50:16;101915.81;;;15.03;68.06
78144;BME280;67394;52.522;13.622;2023-05-20T09:52:43;101912.38;;;15.15;68.18
78144;BME280;67394;52.522;13.622;2023-05-20T09:55:10;101909.78;;;15.18;67.51
78144;BME280;67394;52.522;13.622;2023-05-20T09:57:37;101910.66;;;15.32;68.37
78144;BME280;67394;52.522;13.622;2023-05-20T10:00:05;101917.53;;;15.42;67.83
78144;BME280;67394;52.522;13.622;2023-05-20T10:02:32;101915.81;;;15.36;67.46
78144;BME280;67394;52.522;13.622;2023-05-20T10:05:03;101917.53;;;15.37;68.11
78144;BME280;67394;52.522;13.622;2023-05-20T10:15:45;101902.94;;;15.55;67.46
78144;BME280;67394;52.522;13.622;2023-05-20T10:18:24;101912.38;;;15.68;67.26
78144;BME280;67394;52.522;13.622;2023-05-20T10:20:56;101907.22;;;15.77;66.51
78144;BME280;67394;52.522;13.622;2023-05-20T10:23:27;101904.66;;;15.65;66.10
78144;BME280;67394;52.522;13.622;2023-05-20T10:25:55;101887.38;;;15.82;65.74
78144;BME280;67394;52.522;13.622;2023-05-20T10:28:36;101898.53;;;16.04;66.96
78144;BME280;67394;52.522;13.622;2023-05-20T10:31:16;101893.31;;;16.11;64.92
78144;BME280;67394;52.522;13.622;2023-05-20T10:33:44;101892.44;;;16.19;65.14
78144;BME280;67394;52.522;13.622;2023-05-20T10:36:27;101890.78;;;15.98;64.91
78144;BME280;67394;52.522;13.622;2023-05-20T10:38:55;101895.97;;;15.98;64.75
78144;BME280;67394;52.522;13.622;2023-05-20T10:41:29;101898.53;;;16.10;65.17
78144;BME280;67394;52.522;13.622;2023-05-20T10:44:03;101904.59;;;15.97;64.99
78144;BME280;67394;52.522;13.622;2023-05-20T10:46:31;101890.75;;;16.05;65.59
78144;BME280;67394;52.522;13.622;2023-05-20T10:49:18;101900.25;;;16.09;64.65
78144;BME280;67394;52.522;13.622;2023-05-20T10:51:49;101884.56;;;16.44;65.13
78144;BME280;67394;52.522;13.622;2023-05-20T10:54:16;101874.91;;;16.80;64.97
78144;BME280;67394;52.522;13.622;2023-05-20T10:56:53;101875.00;;;16.54;62.56
78144;BME280;67394;52.522;13.622;2023-05-20T10:59:20;101868.16;;;16.52;63.46
78144;BME280;67394;52.522;13.622;2023-05-20T11:01:47;101864.72;;;16.45;63.86
78144;BME280;67394;52.522;13.622;2023-05-20T11:04:15;101863.91;;;16.41;63.56
78144;BME280;67394;52.522;13.622;2023-05-20T11:06:51;101863.84;;;16.44;63.75
78144;BME280;67394;52.522;13.622;2023-05-20T11:09:18;101870.78;;;16.41;64.18
78144;BME280;67394;52.522;13.622;2023-05-20T11:11:45;101859.47;;;16.57;64.16
78144;BME280;67394;52.522;13.622;2023-05-20T11:14:12;101856.88;;;16.65;64.09
78144;BME280;67394;52.522;13.622;2023-05-20T11:16:39;101857.78;;;16.62;64.11
78144;BME280;67394;52.522;13.622;2023-05-20T11:19:07;101859.31;;;16.84;64.10
78144;BME280;67394;52.522;13.622;2023-05-20T11:21:41;101865.09;;;17.25;62.57
78144;BME280;67394;52.522;13.622;2023-05-20T11:24:08;101865.03;;;17.31;62.09
78144;BME280;67394;52.522;13.622;2023-05-20T11:26:38;101850.25;;;17.39;62.59
78144;BME280;67394;52.522;13.622;2023-05-20T11:29:05;101854.72;;;17.26;61.13
78144;BME280;67394;52.522;13.622;2023-05-20T11:31:32;101836.31;;;17.50;61.42
78144;BME280;67394;52.522;13.622;2023-05-20T11:33:59;101858.66;;;17.67;61.39
78144;BME280;67394;52.522;13.622;2023-05-20T11:36:25;101842.56;;;17.31;60.91
78144;BME280;67394;52.522;13.622;2023-05-20T11:38:55;101837.13;;;17.59;62.05
78144;BME280;67394;52.522;13.622;2023-05-20T11:41:23;101833.28;;;17.93;59.94
78144;BME280;67394;52.522;13.622;2023-05-20T11:44:00;101832.50;;;17.89;59.14
78144;BME280;67394;52.522;13.622;2023-05-20T11:46:27;101840.16;;;18.00;60.10
78144;BME280;67394;52.522;13.622;2023-05-20T11:48:54;101840.28;;;17.86;60.10
78144;BME280;67394;52.522;13.622;2023-05-20T11:51:25;101844.63;;;17.84;59.76
78144;BME280;67394;52.522;13.622;2023-05-20T11:53:53;101843.84;;;17.79;59.42
78144;BME280;67394;52.522;13.622;2023-05-20T11:56:24;101838.41;;;18.65;60.17
78144;BME280;67394;52.522;13.622;2023-05-20T11:58:51;101837.00;;;18.41;58.19
78144;BME280;67394;52.522;13.622;2023-05-20T12:01:17;101843.13;;;18.36;59.26
78144;BME280;67394;52.522;13.622;2023-05-20T12:03:48;101840.78;;;18.17;58.74
78144;BME280;67394;52.522;13.622;2023-05-20T12:06:18;101824.59;;;18.64;56.71
78144;BME280;67394;52.522;13.622;2023-05-20T12:08:45;101827.16;;;19.18;57.37
78144;BME280;67394;52.522;13.622;2023-05-20T12:11:12;101823.09;;;19.54;55.75
78144;BME280;67394;52.522;13.622;2023-05-20T12:13:39;101821.38;;;19.53;55.36
78144;BME280;67394;52.522;13.622;2023-05-20T12:16:06;101822.38;;;18.95;56.73
78144;BME280;67394;52.522;13.622;2023-05-20T12:18:32;101818.09;;;18.91;57.09
78144;BME280;67394;52.522;13.622;2023-05-20T12:20:59;101818.16;;;18.87;57.25
78144;BME280;67394;52.522;13.622;2023-05-20T12:23:26;101818.94;;;18.93;56.84
78144;BME280;67394;52.522;13.622;2023-05-20T12:25:53;101809.75;;;18.73;57.11
78144;BME280;67394;52.522;13.622;2023-05-20T12:28:20;101803.47;;;19.36;56.81
78144;BME280;67394;52.522;13.622;2023-05-20T12:30:46;101805.28;;;19.31;55.65
78144;BME280;67394;52.522;13.622;2023-05-20T12:33:13;101790.75;;;19.67;55.15
78144;BME280;67394;52.522;13.622;2023-05-20T12:35:41;101790.53;;;19.80;54.53
78144;BME280;67394;52.522;13.622;2023-05-20T12:38:08;101791.66;;;19.66;55.47
78144;BME280;67394;52.522;13.622;2023-05-20T12:40:36;101789.94;;;20.07;54.84
78144;BME280;67394;52.522;13.622;2023-05-20T12:43:04;101793.16;;;20.57;53.40
78144;BME280;67394;52.522;13.622;2023-05-20T12:45:31;101782.38;;;20.35;53.39
78144;BME280;67394;52.522;13.622;2023-05-20T12:47:57;101784.09;;;20.36;53.61
78144;BME280;67394;52.522;13.622;2023-05-20T12:50:24;101781.78;;;19.82;54.82
78144;BME280;67394;52.522;13.622;2023-05-20T12:52:51;101779.66;;;19.59;55.72
78144;BME280;67394;52.522;13.622;2023-05-20T12:55:18;101777.44;;;19.38;55.50